Ana Sayfa
METAR-TAF:

METAR-TAF

Havaalanları :

Växjö, İsveç

Enlem: 56-51N, Boylam: 014-50E, yükseklik: 199 m

Güncel hava durumu gözlemi

Rapor saat 03:20 UTC de 32 dakika önce yapıldı.
Sakin rüzgar
Sıcaklık -10°C
Nem 100%
Basınç 1001 hPa
Görüş mesafesi 10 km veya daha fazla

METAR: ESMX 280320Z AUTO 00000KT 9999 NCD M10/M10 Q1001

Saat: 04:52 (03:52 UTC)

Tahmin

Rapor saat 20:30 UTC de 7 saat ve 22 dakika önce yapıldı.
Ayın 27'si saat 21 UTC'den ayın 28'si saat 01 UTC'ye kadar geçerli Tahmin
Rüzgar değişken yönden 2 kt
Görüş mesafesi 10 km veya daha fazla
1500 m altında bulut yok ve kümülonimbus yok
Olasılık 40%
ayın 27'si saat 23 UTC'den ayın 28'si saat 01 UTC'ye kadar
Görüş mesafesi: 0800 m
sis kütleleri

TAF: ESMX 272030Z 2721/2801 VRB02KT CAVOK PROB40 2723/2801 0800 BCFG

4.000'den fazla havaalanı için hava durumu gözlemleri ve tahminleri (METAR ve TAF raporları).

Kullanılabilir istasyonlar harita üzerinde sarı ve kırmızı noktalarla gösterilir.

İstasyonun adını görmek için fareyi noktanın üzerinde gezdirin.

Sonrasında hava gözlem ve tahminlerini görmek için tıklayın.

Haritayı değiştirmek için: yaklaştırmak için siyah artı işaretli yeşil düğmeye ve uzaklaştırmak için de eksi işaretli düğmeye hızla tıklayın; bitişik haritalar için yeşil okları kullanın.


METAR-TAF: